Time;durP1;ratioP1;P1;durP2;ratioP2;P2;SDS_P1;SDS_P2;PMS_P1;PMS_P2;Temp;Humidity;BMP_temperature;BMP_pressure;BME280_temperature;BME280_humidity;BME280_pressure;Samples;Min_cycle;Max_cycle;Signal;HPM_P1;HPM_P2
2022/03/13 00:02:02;;;;;;;21.83;9.80;;;-5.10;84.00;;;;;;5094176;28;20055;-80
2022/03/13 00:04:28;;;;;;;19.40;8.60;;;-5.10;84.00;;;;;;5095171;28;20016;-82
2022/03/13 00:06:55;;;;;;;14.95;8.13;;;-5.20;84.20;;;;;;5094252;28;20486;-83
2022/03/13 00:09:22;;;;;;;19.50;8.43;;;-5.20;84.30;;;;;;5095930;28;20024;-82
2022/03/13 00:11:53;;;;;;;18.80;8.13;;;-5.20;84.30;;;;;;5094489;28;20042;-83
2022/03/13 00:14:24;;;;;;;15.85;7.82;;;-5.30;84.70;;;;;;5095603;28;20020;-83
2022/03/13 00:16:52;;;;;;;13.90;7.07;;;-5.30;85.10;;;;;;5093677;28;20024;-82
2022/03/13 00:19:20;;;;;;;16.35;7.35;;;-5.40;85.20;;;;;;5095982;28;20024;-83
2022/03/13 00:21:52;;;;;;;12.38;6.60;;;-5.40;85.70;;;;;;5096126;28;20054;-81
2022/03/13 00:24:20;;;;;;;14.82;6.60;;;-5.50;85.90;;;;;;5094267;28;20016;-83
2022/03/13 00:26:52;;;;;;;14.25;7.50;;;-5.50;86.10;;;;;;5095454;28;20086;-80
2022/03/13 00:29:19;;;;;;;18.95;8.02;;;-5.40;86.00;;;;;;5093625;28;20029;-81
2022/03/13 00:31:45;;;;;;;15.93;7.30;;;-5.50;85.80;;;;;;5094627;28;20032;-79
2022/03/13 00:34:11;;;;;;;13.45;7.53;;;-5.50;85.70;;;;;;5093282;28;20031;-80
2022/03/13 00:36:37;;;;;;;10.45;6.07;;;-5.50;85.70;;;;;;5094853;28;20032;-80
2022/03/13 00:39:03;;;;;;;16.58;7.60;;;-5.50;85.70;;;;;;5093548;28;20028;-80
2022/03/13 00:41:28;;;;;;;15.07;7.97;;;-5.50;86.00;;;;;;5093307;28;20543;-79
2022/03/13 00:43:54;;;;;;;12.60;6.15;;;-5.50;86.20;;;;;;5093459;28;20056;-84
2022/03/13 00:46:20;;;;;;;12.95;6.80;;;-5.60;86.20;;;;;;5094806;28;20059;-80
2022/03/13 00:48:46;;;;;;;17.30;8.20;;;-5.60;86.20;;;;;;5093069;28;20119;-80
2022/03/13 00:51:12;;;;;;;25.80;11.93;;;-5.60;86.20;;;;;;5093343;28;20020;-83
2022/03/13 00:53:38;;;;;;;20.25;8.43;;;-5.70;86.20;;;;;;5094679;28;20062;-84
2022/03/13 00:56:04;;;;;;;21.83;9.23;;;-5.70;87.00;;;;;;5094583;28;20047;-80
2022/03/13 00:58:30;;;;;;;18.92;7.50;;;-5.80;86.70;;;;;;5094562;28;20025;-81
2022/03/13 01:00:56;;;;;;;15.38;7.95;;;-5.80;86.90;;;;;;5093842;28;20111;-80
2022/03/13 01:03:37;;;;;;;17.80;7.88;;;-5.80;87.20;;;;;;5094497;28;20138;-82
2022/03/13 01:06:04;;;;;;;21.13;7.72;;;-5.80;87.20;;;;;;5093971;28;20028;-81
2022/03/13 01:08:31;;;;;;;12.68;7.00;;;-5.80;87.60;;;;;;5095335;28;20039;-82
2022/03/13 01:10:57;;;;;;;15.98;8.20;;;-5.80;87.80;;;;;;5096165;28;20022;-81
2022/03/13 01:13:23;;;;;;;18.77;7.72;;;-5.80;87.80;;;;;;5098535;28;20055;-81
2022/03/13 01:15:49;;;;;;;17.88;8.63;;;-5.80;88.10;;;;;;5097517;28;20050;-83
2022/03/13 01:18:16;;;;;;;17.40;9.05;;;-5.90;88.20;;;;;;5097462;28;20028;-81
2022/03/13 01:20:46;;;;;;;20.85;9.38;;;-5.80;88.10;;;;;;5098142;28;20069;-79
2022/03/13 01:23:13;;;;;;;21.08;8.55;;;-5.90;88.00;;;;;;5098480;28;20027;-83
2022/03/13 01:25:39;;;;;;;17.30;7.93;;;-5.90;87.90;;;;;;5097393;28;20131;-83
2022/03/13 01:28:05;;;;;;;16.88;8.85;;;-5.90;88.20;;;;;;5097140;28;20067;-81
2022/03/13 01:30:30;;;;;;;22.45;9.90;;;-6.00;89.00;;;;;;5098553;28;20035;-80
2022/03/13 01:32:56;;;;;;;19.23;9.20;;;-6.00;89.40;;;;;;5098331;28;20149;-79
2022/03/13 01:35:23;;;;;;;17.60;8.65;;;-6.10;89.60;;;;;;5097010;28;20027;-80
2022/03/13 01:37:50;;;;;;;21.88;9.00;;;-6.10;89.70;;;;;;5097207;28;20024;-81
2022/03/13 01:40:24;;;;;;;19.63;9.88;;;-6.00;90.00;;;;;;5097991;28;20027;-82
2022/03/13 01:42:51;;;;;;;23.00;9.55;;;-6.00;90.00;;;;;;5098031;28;20114;-82
2022/03/13 01:45:19;;;;;;;19.33;9.02;;;-6.00;90.00;;;;;;5097865;28;20099;-80
2022/03/13 01:47:46;;;;;;;25.95;9.10;;;-6.00;90.00;;;;;;5096101;28;20102;-81
2022/03/13 01:50:14;;;;;;;20.55;8.15;;;-6.10;90.10;;;;;;5097207;28;20024;-82
2022/03/13 01:52:44;;;;;;;15.35;7.93;;;-6.10;90.20;;;;;;5079679;28;20126;-80
2022/03/13 01:55:10;;;;;;;16.70;8.45;;;-6.20;90.30;;;;;;5096405;28;20050;-82
2022/03/13 01:57:37;;;;;;;17.90;9.25;;;-6.20;90.40;;;;;;5096106;28;20055;-77
2022/03/13 02:00:06;;;;;;;19.40;9.45;;;-6.10;90.50;;;;;;5097069;28;20458;-81
2022/03/13 02:02:33;;;;;;;20.08;9.90;;;-6.20;90.40;;;;;;5094554;28;20028;-77
2022/03/13 02:05:00;;;;;;;17.30;9.10;;;-6.20;90.40;;;;;;5094004;28;20024;-81
2022/03/13 02:07:28;;;;;;;22.25;9.43;;;-6.20;90.50;;;;;;5094137;28;20024;-77
2022/03/13 02:09:55;;;;;;;21.05;8.75;;;-6.30;90.60;;;;;;5094324;28;20031;-81
2022/03/13 02:12:23;;;;;;;18.75;8.20;;;-6.30;90.50;;;;;;5094070;28;20016;-78
2022/03/13 02:14:50;;;;;;;21.13;9.23;;;-6.20;90.60;;;;;;5094943;28;20024;-80
2022/03/13 02:17:33;;;;;;;22.00;9.20;;;-6.30;90.70;;;;;;5095156;28;20478;-79
2022/03/13 02:19:58;;;;;;;21.95;9.10;;;-6.30;91.00;;;;;;5095048;28;20090;-81
2022/03/13 02:22:25;;;;;;;19.52;8.55;;;-6.40;90.90;;;;;;5094800;28;20467;-78
2022/03/13 02:24:51;;;;;;;19.58;8.48;;;-6.30;90.90;;;;;;5093716;28;20515;-79
2022/03/13 02:27:23;;;;;;;23.55;10.07;;;-6.30;90.90;;;;;;5095293;28;20032;-79
2022/03/13 02:29:49;;;;;;;25.58;9.18;;;-6.40;91.00;;;;;;5095249;28;20039;-78
2022/03/13 02:32:16;;;;;;;18.35;8.82;;;-6.40;91.20;;;;;;5093362;28;20020;-79
2022/03/13 02:34:43;;;;;;;24.90;9.18;;;-6.40;91.30;;;;;;5093533;28;20032;-81
2022/03/13 02:37:35;;;;;;;19.98;9.05;;;-6.50;91.70;;;;;;5094934;28;20024;-78
2022/03/13 02:40:02;;;;;;;20.52;9.30;;;-6.50;91.80;;;;;;5094736;28;20055;-81
2022/03/13 02:42:28;;;;;;;18.23;8.73;;;-6.50;91.70;;;;;;5094585;28;20023;-80
2022/03/13 02:44:54;;;;;;;17.00;8.65;;;-6.50;91.70;;;;;;5093413;28;20028;-79
2022/03/13 02:47:19;;;;;;;17.95;9.75;;;-6.50;91.70;;;;;;5093187;28;20044;-79
2022/03/13 02:49:45;;;;;;;18.80;9.85;;;-6.50;91.70;;;;;;5093514;28;20024;-78
2022/03/13 02:52:10;;;;;;;16.83;8.10;;;-6.50;91.80;;;;;;5094617;28;20031;-79
2022/03/13 02:54:36;;;;;;;21.33;8.85;;;-6.60;91.80;;;;;;5094508;28;20031;-77
2022/03/13 02:57:02;;;;;;;19.33;9.13;;;-6.60;91.80;;;;;;5096178;28;20035;-80
2022/03/13 02:59:29;;;;;;;18.75;9.05;;;-6.60;91.90;;;;;;5096283;28;20028;-82
2022/03/13 03:01:55;;;;;;;19.73;10.00;;;-6.60;91.90;;;;;;5096632;28;20063;-81
2022/03/13 03:04:24;;;;;;;19.95;8.93;;;-6.60;92.00;;;;;;5094458;28;20024;-78
2022/03/13 03:06:54;;;;;;;26.10;12.20;;;-6.60;92.10;;;;;;5093946;28;20567;-79
2022/03/13 03:09:20;;;;;;;28.15;12.48;;;-6.70;92.40;;;;;;5095929;28;20032;-80
2022/03/13 03:11:47;;;;;;;30.52;12.18;;;-6.70;92.70;;;;;;5094663;28;20035;-80
2022/03/13 03:14:12;;;;;;;33.58;12.18;;;-6.80;92.70;;;;;;5095411;28;20027;-79
2022/03/13 03:16:38;;;;;;;34.03;13.90;;;-6.70;92.90;;;;;;5094571;28;20016;-81
2022/03/13 03:19:04;;;;;;;40.40;14.55;;;-6.80;92.80;;;;;;5094877;28;20356;-80
2022/03/13 03:21:30;;;;;;;31.55;12.30;;;-6.80;92.80;;;;;;5094796;28;20032;-81
2022/03/13 03:23:55;;;;;;;36.40;13.20;;;-6.80;92.80;;;;;;5094705;28;20570;-79
2022/03/13 03:26:21;;;;;;;25.30;11.65;;;-6.80;92.90;;;;;;5094275;28;20033;-78
2022/03/13 03:28:47;;;;;;;26.67;10.90;;;-6.80;92.90;;;;;;5095430;28;20072;-80
2022/03/13 03:31:13;;;;;;;26.10;10.43;;;-6.80;93.00;;;;;;5095778;28;20073;-80
2022/03/13 03:33:38;;;;;;;26.33;11.77;;;-6.80;93.00;;;;;;5096476;28;20424;-83
2022/03/13 03:36:04;;;;;;;22.90;10.35;;;-6.90;93.10;;;;;;5111181;28;20032;-82
2022/03/13 03:38:30;;;;;;;27.23;10.75;;;-6.90;93.20;;;;;;5110825;28;20017;-82
2022/03/13 03:40:56;;;;;;;26.60;9.52;;;-6.90;93.30;;;;;;5111307;28;20513;-81
2022/03/13 03:43:21;;;;;;;20.48;9.60;;;-6.90;93.40;;;;;;5111832;28;20027;-83
2022/03/13 03:45:47;;;;;;;18.40;9.20;;;-6.90;93.50;;;;;;5111042;28;20046;-84
2022/03/13 03:48:13;;;;;;;23.55;10.05;;;-6.90;93.50;;;;;;5101293;28;20501;-78
2022/03/13 03:50:38;;;;;;;23.27;10.07;;;-6.90;93.50;;;;;;5096943;28;20020;-79
2022/03/13 03:53:04;;;;;;;23.80;10.55;;;-6.90;93.60;;;;;;5095629;28;20020;-77
2022/03/13 03:55:30;;;;;;;20.50;10.27;;;-6.90;93.70;;;;;;5096077;28;20020;-80
2022/03/13 03:57:56;;;;;;;24.52;11.23;;;-6.90;93.70;;;;;;5095101;28;20466;-78
2022/03/13 04:00:24;;;;;;;21.27;9.88;;;-6.90;93.70;;;;;;5095001;28;20024;-78
2022/03/13 04:02:50;;;;;;;22.65;8.77;;;-6.90;93.50;;;;;;5094437;28;20024;-81
2022/03/13 04:05:16;;;;;;;20.42;9.52;;;-6.90;93.60;;;;;;5094503;28;20099;-78
2022/03/13 04:07:41;;;;;;;23.13;12.60;;;-6.90;93.60;;;;;;5094214;28;20032;-78
2022/03/13 04:10:08;;;;;;;27.15;11.75;;;-7.00;93.60;;;;;;5093029;28;20403;-79
2022/03/13 04:12:34;;;;;;;21.95;11.45;;;-7.00;93.50;;;;;;5093525;28;20517;-77
2022/03/13 04:15:01;;;;;;;20.00;9.50;;;-6.90;93.50;;;;;;5093329;28;20028;-78
2022/03/13 04:17:27;;;;;;;15.52;8.82;;;-6.90;93.30;;;;;;5093676;28;20538;-79
2022/03/13 04:19:53;;;;;;;18.85;9.48;;;-6.90;93.10;;;;;;5092701;28;20024;-78
2022/03/13 04:22:19;;;;;;;21.88;10.38;;;-7.00;93.20;;;;;;5092758;28;20360;-78
2022/03/13 04:24:45;;;;;;;18.45;8.88;;;-7.00;93.20;;;;;;5092605;28;20015;-78
2022/03/13 04:27:10;;;;;;;19.85;9.35;;;-7.00;93.20;;;;;;5092505;28;20085;-80
2022/03/13 04:29:36;;;;;;;17.77;8.90;;;-7.00;93.10;;;;;;5093805;28;20028;-78
2022/03/13 04:32:04;;;;;;;20.02;9.77;;;-7.00;92.90;;;;;;5093691;28;20031;-80
2022/03/13 04:34:29;;;;;;;20.42;9.88;;;-7.00;93.00;;;;;;5092673;28;20028;-79
2022/03/13 04:36:56;;;;;;;19.17;10.70;;;-7.10;93.10;;;;;;5092835;28;20027;-81
2022/03/13 04:39:21;;;;;;;23.73;10.05;;;-7.10;93.40;;;;;;5092588;28;20024;-78
2022/03/13 04:41:47;;;;;;;19.17;9.30;;;-7.10;93.60;;;;;;5094089;28;20024;-79
2022/03/13 04:44:13;;;;;;;24.90;10.40;;;-7.10;93.70;;;;;;5093046;28;20085;-81
2022/03/13 04:46:40;;;;;;;19.42;10.95;;;-7.20;93.80;;;;;;5096076;28;20048;-80
2022/03/13 04:49:05;;;;;;;20.13;9.65;;;-7.20;93.80;;;;;;5097785;28;20131;-79
2022/03/13 04:51:32;;;;;;;25.02;10.93;;;-7.10;93.70;;;;;;5096543;28;20059;-81
2022/03/13 04:53:57;;;;;;;21.92;9.32;;;-7.00;93.90;;;;;;5098089;28;20044;-79
2022/03/13 04:56:23;;;;;;;19.45;9.13;;;-7.20;94.10;;;;;;5097730;28;20043;-80
2022/03/13 04:58:50;;;;;;;27.63;10.38;;;-7.20;94.40;;;;;;5097699;28;20118;-80
2022/03/13 05:01:17;;;;;;;26.17;10.05;;;-7.20;94.40;;;;;;5096489;28;20030;-80
2022/03/13 05:03:42;;;;;;;21.25;9.43;;;-7.20;94.70;;;;;;5097451;28;20020;-79
2022/03/13 05:06:08;;;;;;;17.60;8.35;;;-7.20;94.40;;;;;;5096007;28;20464;-78
2022/03/13 05:08:36;;;;;;;20.60;9.07;;;-7.20;94.50;;;;;;5097246;28;20517;-76
2022/03/13 05:11:05;;;;;;;17.02;9.10;;;-7.20;94.40;;;;;;5095574;28;20024;-79
2022/03/13 05:13:31;;;;;;;21.42;9.95;;;-7.20;94.50;;;;;;5096081;28;20375;-79
2022/03/13 05:15:57;;;;;;;20.77;10.27;;;-7.20;94.60;;;;;;5095884;28;20020;-79
2022/03/13 05:18:23;;;;;;;20.55;10.25;;;-7.20;95.00;;;;;;5097086;28;20012;-80
2022/03/13 05:20:48;;;;;;;21.17;11.25;;;-7.30;94.80;;;;;;5097141;28;20417;-79
2022/03/13 05:23:14;;;;;;;21.92;10.27;;;-7.20;94.80;;;;;;5095921;28;20383;-82
2022/03/13 05:25:41;;;;;;;24.65;10.20;;;-7.20;94.80;;;;;;5096221;28;20462;-79
2022/03/13 05:28:08;;;;;;;18.25;9.40;;;-7.20;94.90;;;;;;5096756;28;20032;-78
2022/03/13 05:30:34;;;;;;;22.63;10.43;;;-7.20;95.10;;;;;;5095765;28;20112;-77
2022/03/13 05:33:00;;;;;;;24.10;10.13;;;-7.20;95.20;;;;;;5095576;28;20482;-79
2022/03/13 05:35:26;;;;;;;22.65;10.95;;;-7.20;95.10;;;;;;5097209;28;20032;-78
2022/03/13 05:37:52;;;;;;;19.83;9.50;;;-7.20;95.10;;;;;;5096595;28;20070;-79
2022/03/13 05:40:19;;;;;;;24.52;11.48;;;-7.20;95.20;;;;;;5095938;28;20421;-78
2022/03/13 05:42:48;;;;;;;25.65;12.20;;;-7.20;95.20;;;;;;5095515;28;20081;-79
2022/03/13 05:45:16;;;;;;;29.05;11.23;;;-7.20;95.30;;;;;;5095550;28;20514;-83
2022/03/13 05:47:53;;;;;;;26.88;11.70;;;-7.20;95.30;;;;;;5095133;28;20051;-78
2022/03/13 05:50:21;;;;;;;30.55;12.30;;;-7.10;95.30;;;;;;5095439;28;20028;-81
2022/03/13 05:52:49;;;;;;;32.97;13.30;;;-7.10;95.30;;;;;;5095592;28;20028;-78
2022/03/13 05:55:16;;;;;;;32.72;11.23;;;-7.00;95.20;;;;;;5095330;28;20024;-78
2022/03/13 05:57:42;;;;;;;28.67;11.77;;;-7.00;95.10;;;;;;5095146;28;20166;-78
2022/03/13 06:00:11;;;;;;;24.38;11.57;;;-7.10;95.00;;;;;;5094908;28;20028;-80
2022/03/13 06:02:39;;;;;;;26.35;11.10;;;-7.00;95.00;;;;;;5095063;28;20038;-79
2022/03/13 06:05:12;;;;;;;30.52;9.73;;;-7.00;95.00;;;;;;5096512;28;20077;-80
2022/03/13 06:07:38;;;;;;;28.23;10.77;;;-6.90;95.00;;;;;;5095119;28;20039;-81
2022/03/13 06:10:05;;;;;;;26.77;10.82;;;-6.90;94.80;;;;;;5096413;28;20024;-79
2022/03/13 06:12:32;;;;;;;20.17;10.20;;;-6.80;94.80;;;;;;5096730;28;20019;-81
2022/03/13 06:14:59;;;;;;;23.40;10.82;;;-6.70;94.80;;;;;;5095627;28;20024;-81
2022/03/13 06:17:25;;;;;;;18.13;9.80;;;-6.60;94.70;;;;;;5094997;28;20016;-82
2022/03/13 06:19:51;;;;;;;20.13;10.50;;;-6.50;94.70;;;;;;5095010;28;20086;-81
2022/03/13 06:22:18;;;;;;;23.52;11.32;;;-6.50;94.60;;;;;;5095866;28;20027;-80
2022/03/13 06:24:45;;;;;;;27.77;11.35;;;-5.60;99.90;;;;;;5099573;28;20045;-80
2022/03/13 06:27:10;;;;;;;29.27;13.40;;;-5.40;99.90;;;;;;5097487;28;20386;-80
2022/03/13 06:29:40;;;;;;;23.13;12.32;;;-5.40;96.40;;;;;;5095669;28;20111;-81
2022/03/13 06:32:06;;;;;;;26.95;13.90;;;-5.40;94.70;;;;;;5095889;28;20024;-81
2022/03/13 06:34:33;;;;;;;20.88;11.07;;;-5.40;94.00;;;;;;5095921;28;20031;-79
2022/03/13 06:36:58;;;;;;;38.22;15.18;;;-5.40;93.70;;;;;;5095311;28;20804;-81
2022/03/13 06:39:24;;;;;;;34.00;15.90;;;-5.40;93.50;;;;;;5096534;28;20157;-82
2022/03/13 06:41:51;;;;;;;42.33;17.00;;;-5.40;93.30;;;;;;5095880;28;20115;-81
2022/03/13 06:44:17;;;;;;;34.88;13.23;;;-5.30;93.30;;;;;;5095631;28;20020;-82
2022/03/13 06:46:43;;;;;;;24.98;12.60;;;-5.30;93.10;;;;;;5095531;28;20427;-83
2022/03/13 06:49:09;;;;;;;25.90;11.25;;;-5.20;92.60;;;;;;5094923;28;20089;-79
2022/03/13 06:51:38;;;;;;;24.95;11.82;;;-5.10;92.30;;;;;;5096254;28;20020;-80
2022/03/13 06:54:08;;;;;;;26.52;13.45;;;-5.00;92.00;;;;;;5096106;28;20031;-80
2022/03/13 06:56:34;;;;;;;31.27;12.75;;;-4.80;91.70;;;;;;5095229;28;20020;-80
2022/03/13 06:59:03;;;;;;;25.25;12.48;;;-4.70;91.00;;;;;;5094835;28;20027;-82
2022/03/13 07:01:33;;;;;;;25.45;12.18;;;-4.50;90.10;;;;;;5094275;28;20027;-79
2022/03/13 07:03:59;;;;;;;23.83;11.00;;;-4.40;89.60;;;;;;5095041;28;20020;-79
2022/03/13 07:06:25;;;;;;;24.55;11.52;;;-4.30;90.00;;;;;;5095103;28;20035;-78
2022/03/13 07:08:50;;;;;;;23.27;13.02;;;-4.20;89.30;;;;;;5095244;28;20683;-79
2022/03/13 07:11:16;;;;;;;26.05;11.57;;;-4.00;88.90;;;;;;5095477;28;20035;-80
2022/03/13 07:13:45;;;;;;;26.60;12.85;;;-4.00;88.20;;;;;;5094340;28;20024;-78
2022/03/13 07:16:12;;;;;;;24.67;11.93;;;-3.80;91.20;;;;;;5094013;28;20031;-79
2022/03/13 07:18:39;;;;;;;28.85;13.85;;;-3.70;91.40;;;;;;5095719;28;20020;-80
2022/03/13 07:21:05;;;;;;;24.80;12.32;;;-3.60;92.30;;;;;;5094353;28;20024;-80
2022/03/13 07:23:31;;;;;;;31.17;14.73;;;-3.40;93.30;;;;;;5094224;28;20032;-79
2022/03/13 07:25:57;;;;;;;26.27;13.50;;;-3.20;95.90;;;;;;5094394;28;20024;-82
2022/03/13 07:28:23;;;;;;;25.85;11.70;;;-3.10;99.90;;;;;;5094268;28;20074;-82
2022/03/13 07:30:48;;;;;;;25.17;12.27;;;-2.90;90.50;;;;;;5095207;28;20103;-81
2022/03/13 07:33:14;;;;;;;21.67;11.30;;;-2.70;90.40;;;;;;5093609;28;20446;-81
2022/03/13 07:35:40;;;;;;;18.98;10.63;;;-2.70;92.00;;;;;;5095166;28;20023;-81
2022/03/13 07:38:06;;;;;;;23.88;11.27;;;-2.40;93.70;;;;;;5094722;28;20052;-81
2022/03/13 07:40:32;;;;;;;20.02;11.55;;;-2.30;97.10;;;;;;5094729;28;20028;-82
2022/03/13 07:42:58;;;;;;;21.70;11.70;;;-2.00;95.60;;;;;;5094654;28;20035;-81
2022/03/13 07:45:25;;;;;;;25.42;12.02;;;-2.00;91.00;;;;;;5093834;28;20024;-81
2022/03/13 07:47:54;;;;;;;17.65;10.60;;;-1.80;88.00;;;;;;5094380;28;20052;-80
2022/03/13 07:50:21;;;;;;;18.30;10.10;;;-2.10;87.20;;;;;;5094932;28;20017;-83
2022/03/13 07:52:47;;;;;;;20.52;10.75;;;-1.50;76.30;;;;;;5093639;28;20035;-78
2022/03/13 07:55:14;;;;;;;20.80;12.18;;;-1.30;76.20;;;;;;5092959;28;20034;-80
2022/03/13 07:57:40;;;;;;;24.45;11.02;;;-1.10;75.70;;;;;;5094925;28;20494;-82
2022/03/13 08:00:07;;;;;;;26.75;10.88;;;-1.00;74.80;;;;;;5093492;28;20055;-81
2022/03/13 08:02:33;;;;;;;20.13;9.70;;;-0.90;73.00;;;;;;5094965;28;20012;-80
2022/03/13 08:04:58;;;;;;;17.85;9.38;;;-0.70;73.60;;;;;;5093944;28;20035;-85
2022/03/13 08:07:24;;;;;;;15.75;9.30;;;0.20;70.30;;;;;;5093697;28;20399;-78
2022/03/13 08:09:50;;;;;;;17.75;10.07;;;-0.40;68.80;;;;;;5095058;28;20031;-81
2022/03/13 08:12:15;;;;;;;16.27;8.90;;;-0.30;66.90;;;;;;5094852;28;20174;-80
2022/03/13 08:14:41;;;;;;;23.85;12.23;;;-0.20;66.70;;;;;;5093774;28;20031;-82
2022/03/13 08:17:06;;;;;;;18.65;10.98;;;0.00;66.20;;;;;;5093729;28;20024;-80
2022/03/13 08:19:32;;;;;;;25.02;13.52;;;0.20;64.80;;;;;;5094750;28;20058;-79
2022/03/13 08:21:58;;;;;;;20.30;9.25;;;0.20;63.10;;;;;;5098723;28;20121;-81
2022/03/13 08:24:24;;;;;;;18.20;9.32;;;0.40;61.30;;;;;;5099017;28;20035;-81
2022/03/13 08:26:50;;;;;;;20.20;10.00;;;0.50;61.10;;;;;;5097666;28;20066;-82
2022/03/13 08:29:16;;;;;;;20.23;8.95;;;0.60;61.00;;;;;;5096927;28;20068;-79
2022/03/13 08:31:42;;;;;;;19.80;9.45;;;0.70;61.20;;;;;;5098698;28;20028;-83
2022/03/13 08:34:08;;;;;;;17.15;8.43;;;0.80;60.80;;;;;;5097148;28;20054;-82
2022/03/13 08:36:38;;;;;;;17.13;8.27;;;1.00;61.10;;;;;;5098800;28;20016;-81
2022/03/13 08:39:05;;;;;;;15.65;8.25;;;1.10;60.10;;;;;;5097309;28;20034;-81
2022/03/13 08:41:32;;;;;;;23.15;9.02;;;1.90;60.60;;;;;;5097492;28;20034;-79
2022/03/13 08:43:57;;;;;;;19.58;8.88;;;1.20;60.70;;;;;;5097117;28;20035;-79
2022/03/13 08:46:23;;;;;;;15.95;9.00;;;1.50;69.20;;;;;;5096509;28;20048;-82
2022/03/13 08:48:49;;;;;;;12.55;8.52;;;1.60;71.50;;;;;;5098198;28;20051;-82
2022/03/13 08:51:18;;;;;;;18.17;9.13;;;1.50;59.80;;;;;;5096993;28;20475;-79
2022/03/13 08:53:44;;;;;;;15.50;9.13;;;1.50;60.10;;;;;;5098340;28;20035;-83
2022/03/13 08:56:10;;;;;;;18.77;9.98;;;1.70;58.50;;;;;;5098242;28;20383;-82
2022/03/13 08:58:36;;;;;;;13.73;8.38;;;1.80;58.40;;;;;;5098296;28;20024;-82
2022/03/13 09:01:01;;;;;;;17.42;9.15;;;1.90;57.30;;;;;;5097091;28;20024;-81
2022/03/13 09:03:28;;;;;;;15.00;9.02;;;2.00;57.20;;;;;;5097724;28;20035;-81
2022/03/13 09:05:55;;;;;;;16.77;10.15;;;2.10;58.00;;;;;;5096780;28;20025;-84
2022/03/13 09:08:21;;;;;;;17.75;9.88;;;2.20;61.40;;;;;;5097991;28;20032;-83
2022/03/13 09:10:46;;;;;;;15.82;8.45;;;2.50;70.00;;;;;;5097682;28;20032;-83
2022/03/13 09:13:13;;;;;;;16.02;8.82;;;2.50;66.20;;;;;;5097397;28;20020;-80
2022/03/13 09:15:39;;;;;;;15.25;8.35;;;2.80;66.40;;;;;;5095542;28;20016;-79
2022/03/13 09:18:05;;;;;;;16.45;9.80;;;2.50;55.90;;;;;;5095775;28;20020;-82
2022/03/13 09:20:31;;;;;;;16.80;8.90;;;2.70;56.40;;;;;;5094697;28;20039;-80
2022/03/13 09:22:57;;;;;;;15.50;8.75;;;2.90;56.30;;;;;;5094253;28;20020;-79
2022/03/13 09:25:22;;;;;;;14.30;8.80;;;3.60;56.90;;;;;;5094743;28;20028;-80
2022/03/13 09:27:48;;;;;;;15.20;8.73;;;4.20;56.50;;;;;;5094504;28;20094;-80
2022/03/13 09:30:14;;;;;;;18.65;9.30;;;3.60;57.10;;;;;;5095931;28;20467;-83
2022/03/13 09:32:41;;;;;;;18.95;9.27;;;3.30;55.40;;;;;;5095291;28;20023;-83
2022/03/13 09:35:08;;;;;;;15.18;9.43;;;3.50;54.60;;;;;;5095741;28;20042;-79
2022/03/13 09:37:33;;;;;;;18.80;8.95;;;3.60;54.40;;;;;;5095810;28;20398;-81
2022/03/13 09:39:59;;;;;;;13.30;8.20;;;3.70;53.60;;;;;;5096083;28;20024;-84
2022/03/13 09:42:25;;;;;;;15.23;8.70;;;4.00;53.30;;;;;;5096354;28;20556;-85
2022/03/13 09:44:50;;;;;;;13.73;8.95;;;3.90;62.40;;;;;;5101642;28;20417;-84
2022/03/13 09:47:16;;;;;;;15.43;8.38;;;4.40;68.00;;;;;;5099619;28;20052;-85
2022/03/13 09:49:42;;;;;;;13.98;8.15;;;5.00;56.60;;;;;;5098482;28;20497;-84
2022/03/13 09:52:09;;;;;;;15.02;7.93;;;4.40;54.40;;;;;;5098066;28;20107;-80
2022/03/13 09:54:35;;;;;;;17.48;8.85;;;;;;;;;;5097847;28;20082;-85
2022/03/13 09:57:03;;;;;;;25.73;13.77;;;;;;;;;;5095471;28;20024;-83
2022/03/13 09:59:28;;;;;;;17.48;9.18;;;4.60;74.30;;;;;;5095284;28;20024;-80
2022/03/13 10:01:54;;;;;;;14.02;7.95;;;4.70;74.40;;;;;;5095041;28;20035;-82
2022/03/13 10:04:20;;;;;;;14.27;8.60;;;4.70;73.40;;;;;;5095518;28;20118;-82
2022/03/13 10:07:08;;;;;;;13.13;8.60;;;4.70;71.20;;;;;;5095781;28;20113;-80
2022/03/13 10:09:35;;;;;;;15.45;8.15;;;4.80;71.50;;;;;;5094584;28;20063;-80
2022/03/13 10:12:04;;;;;;;13.43;8.65;;;5.00;59.90;;;;;;5094497;28;20024;-81
2022/03/13 10:14:30;;;;;;;15.48;8.88;;;5.10;60.00;;;;;;5094730;28;20028;-85
2022/03/13 10:16:55;;;;;;;13.45;8.27;;;5.70;60.20;;;;;;5097402;28;20039;-86
2022/03/13 10:19:24;;;;;;;17.40;8.55;;;5.20;59.90;;;;;;5095266;28;20028;-80
2022/03/13 10:22:09;;;;;;;15.27;8.88;;;5.50;65.60;;;;;;5094914;28;20031;-85
2022/03/13 10:24:41;;;;;;;17.75;10.27;;;5.50;62.50;;;;;;5094271;28;20032;-84
2022/03/13 10:27:20;;;;;;;16.33;9.52;;;5.70;55.10;;;;;;5094461;28;20471;-82
2022/03/13 10:29:48;;;;;;;14.10;9.43;;;5.90;65.90;;;;;;5094396;28;20429;-82
2022/03/13 10:32:17;;;;;;;16.88;9.30;;;6.10;54.20;;;;;;5094338;28;20497;-83
2022/03/13 10:34:59;;;;;;;14.93;9.00;;;6.20;54.40;;;;;;5094109;28;20055;-82
2022/03/13 10:37:43;;;;;;;19.17;9.25;;;6.50;50.80;;;;;;5095824;28;20158;-84
2022/03/13 10:40:36;;;;;;;17.02;8.20;;;6.70;48.40;;;;;;5093977;28;20391;-82
2022/03/13 10:43:04;;;;;;;15.63;9.05;;;6.70;47.50;;;;;;5089956;28;20025;-84
2022/03/13 10:45:47;;;;;;;13.65;8.15;;;6.80;47.40;;;;;;5094043;28;20024;-83
2022/03/13 10:48:32;;;;;;;12.50;8.23;;;6.90;47.50;;;;;;5093492;28;20044;-82
2022/03/13 10:51:07;;;;;;;15.38;8.13;;;6.90;46.80;;;;;;5093833;28;20032;-82
2022/03/13 10:53:32;;;;;;;13.05;7.75;;;6.90;47.00;;;;;;5093723;28;20032;-83
2022/03/13 10:56:08;;;;;;;13.65;7.28;;;7.00;45.90;;;;;;5093507;28;20112;-80
2022/03/13 10:58:36;;;;;;;15.67;8.60;;;6.90;45.60;;;;;;5093374;28;20093;-80
2022/03/13 11:01:12;;;;;;;13.80;8.52;;;6.90;45.00;;;;;;5093863;28;20291;-81
2022/03/13 11:03:52;;;;;;;31.55;18.90;;;6.80;44.40;;;;;;5093153;28;20032;-80
2022/03/13 11:06:20;;;;;;;20.38;13.82;;;6.80;45.40;;;;;;5092860;28;20123;-79
2022/03/13 11:08:46;;;;;;;21.55;14.43;;;6.80;45.10;;;;;;5094084;28;20082;-80
2022/03/13 11:11:16;;;;;;;30.55;16.92;;;6.90;45.30;;;;;;5093179;28;20031;-82
2022/03/13 11:13:43;;;;;;;16.83;9.30;;;7.00;45.30;;;;;;5093067;28;20104;-82
2022/03/13 11:16:17;;;;;;;12.40;7.82;;;7.00;45.00;;;;;;5092968;28;20020;-80
2022/03/13 11:18:45;;;;;;;12.10;7.70;;;6.90;44.80;;;;;;5092925;28;20024;-81
2022/03/13 11:21:12;;;;;;;14.55;8.30;;;7.10;44.20;;;;;;5093232;28;20118;-82
2022/03/13 11:23:38;;;;;;;13.40;7.45;;;7.20;44.30;;;;;;5093297;28;20023;-81
2022/03/13 11:26:07;;;;;;;16.85;10.20;;;7.20;44.30;;;;;;5093775;28;20612;-83
2022/03/13 11:28:34;;;;;;;14.93;8.98;;;7.20;44.30;;;;;;5093232;28;20034;-82
2022/03/13 11:31:00;;;;;;;14.32;9.75;;;7.30;44.40;;;;;;5093272;28;20024;-80
2022/03/13 11:33:45;;;;;;;12.90;8.60;;;7.40;43.80;;;;;;5093473;28;20024;-84
2022/03/13 11:36:31;;;;;;;12.25;7.88;;;7.40;43.80;;;;;;5093374;28;20028;-83
2022/03/13 11:39:03;;;;;;;11.77;8.02;;;7.40;43.50;;;;;;5094526;28;20024;-84
2022/03/13 11:41:40;;;;;;;14.43;7.35;;;7.40;43.80;;;;;;5093140;28;20042;-81
2022/03/13 11:44:30;;;;;;;13.20;8.73;;;7.50;43.10;;;;;;5093084;28;20012;-81
2022/03/13 11:46:58;;;;;;;12.50;7.75;;;7.50;43.50;;;;;;5092754;28;20058;-83
2022/03/13 11:49:26;;;;;;;12.75;8.25;;;7.60;43.50;;;;;;5092958;28;20085;-82
2022/03/13 11:52:11;;;;;;;10.68;7.30;;;7.60;43.10;;;;;;5093250;28;20100;-83
2022/03/13 11:54:50;;;;;;;12.93;8.63;;;7.70;43.80;;;;;;5092514;28;20050;-82
2022/03/13 11:57:23;;;;;;;11.82;7.47;;;7.80;44.00;;;;;;5092884;28;20103;-82
2022/03/13 12:00:28;;;;;;;16.85;9.25;;;7.90;44.20;;;;;;5094128;28;20372;-83
2022/03/13 12:03:06;;;;;;;17.88;11.35;;;7.90;44.20;;;;;;5092946;28;20050;-82
2022/03/13 12:05:33;;;;;;;14.95;8.02;;;8.00;43.50;;;;;;5092589;28;20031;-83
2022/03/13 12:08:08;;;;;;;11.60;7.00;;;8.10;43.10;;;;;;5092367;28;20032;-82
2022/03/13 12:10:41;;;;;;;13.07;7.85;;;8.10;42.60;;;;;;5092772;28;20463;-81
2022/03/13 12:13:09;;;;;;;12.05;7.10;;;8.20;43.10;;;;;;5092865;28;20032;-82
2022/03/13 12:15:35;;;;;;;16.23;6.60;;;8.70;43.00;;;;;;5092724;28;20024;-83
2022/03/13 12:18:17;;;;;;;23.73;14.18;;;8.60;42.70;;;;;;5092702;28;20034;-84
2022/03/13 12:20:44;;;;;;;10.35;7.18;;;8.40;42.50;;;;;;5092631;28;20502;-83
2022/03/13 12:23:10;;;;;;;11.75;8.40;;;8.50;43.10;;;;;;5092446;28;20449;-83
2022/03/13 12:25:36;;;;;;;8.80;6.47;;;8.50;42.90;;;;;;5092627;28;20016;-86
2022/03/13 12:28:02;;;;;;;13.32;7.05;;;8.50;42.00;;;;;;5092843;28;20127;-82
2022/03/13 12:30:30;;;;;;;13.25;7.55;;;8.50;42.50;;;;;;5092524;28;20027;-83
2022/03/13 12:33:04;;;;;;;12.60;7.00;;;8.40;42.60;;;;;;5092279;28;20548;-83
2022/03/13 12:35:31;;;;;;;14.95;7.68;;;8.50;43.10;;;;;;5092507;28;20025;-83
2022/03/13 12:38:01;;;;;;;11.30;7.70;;;8.70;43.10;;;;;;5092488;28;20020;-86
2022/03/13 12:40:30;;;;;;;12.88;8.50;;;8.70;42.80;;;;;;5085410;28;20029;-85
2022/03/13 12:42:59;;;;;;;13.65;7.85;;;8.80;42.70;;;;;;5084643;28;20471;-87